createdAt,value
2023-01-29T00:00:23.999Z,100494.85
2023-01-29T00:02:53.216Z,100492.98
2023-01-29T00:05:28.022Z,100485.98
2023-01-29T00:07:57.197Z,100485.96
2023-01-29T00:10:26.115Z,100484.30
2023-01-29T00:12:54.698Z,100478.75
2023-01-29T00:15:23.508Z,100479.84
2023-01-29T00:17:52.173Z,100479.48
2023-01-29T00:20:20.875Z,100481.34
2023-01-29T00:22:50.164Z,100477.55
2023-01-29T00:25:18.638Z,100482.27
2023-01-29T00:27:47.579Z,100485.70
2023-01-29T00:30:19.956Z,100485.98
2023-01-29T00:32:48.709Z,100480.52
2023-01-29T00:35:17.679Z,100475.25
2023-01-29T00:37:46.264Z,100479.55
2023-01-29T00:40:15.426Z,100484.15
2023-01-29T00:43:04.349Z,100484.08
2023-01-29T00:45:34.679Z,100487.76
2023-01-29T00:48:03.949Z,100488.01
2023-01-29T00:50:32.637Z,100491.81
2023-01-29T00:53:01.551Z,100488.61
2023-01-29T00:55:30.103Z,100487.71
2023-01-29T00:57:58.687Z,100491.41
2023-01-29T01:00:27.674Z,100494.84
2023-01-29T01:03:08.557Z,100498.39
2023-01-29T01:05:39.607Z,100497.02
2023-01-29T01:08:28.038Z,100497.41
2023-01-29T01:11:04.630Z,100490.51
2023-01-29T01:13:34.577Z,100493.02
2023-01-29T01:16:16.373Z,100490.48
2023-01-29T01:18:45.108Z,100496.38
2023-01-29T01:21:13.588Z,100490.84
2023-01-29T01:23:42.275Z,100484.73
2023-01-29T01:26:11.373Z,100485.08
2023-01-29T01:28:39.953Z,100485.41
2023-01-29T01:31:12.573Z,100487.42
2023-01-29T01:33:41.345Z,100484.27
2023-01-29T01:36:10.140Z,100481.55
2023-01-29T01:38:45.461Z,100483.33
2023-01-29T01:41:15.768Z,100489.07
2023-01-29T01:44:04.404Z,100485.11
2023-01-29T01:46:37.102Z,100480.09
2023-01-29T01:49:18.539Z,100479.81
2023-01-29T01:51:51.058Z,100480.30
2023-01-29T01:54:29.163Z,100482.27
2023-01-29T01:57:09.341Z,100481.52
2023-01-29T01:59:39.279Z,100484.63
2023-01-29T02:02:26.605Z,100485.55
2023-01-29T02:05:13.901Z,100488.27
2023-01-29T02:08:05.397Z,100484.79
2023-01-29T02:10:38.487Z,100484.58
2023-01-29T02:13:07.201Z,100478.98
2023-01-29T02:15:36.369Z,100478.66
2023-01-29T02:18:05.263Z,100483.49
2023-01-29T02:20:33.946Z,100483.61
2023-01-29T02:23:23.621Z,100484.55
2023-01-29T02:26:10.741Z,100474.92
2023-01-29T02:29:19.678Z,100473.80
2023-01-29T02:31:58.135Z,100467.57
2023-01-29T02:34:52.791Z,100467.02
2023-01-29T02:37:26.071Z,100469.08
2023-01-29T02:40:02.095Z,100468.08
2023-01-29T02:42:36.353Z,100467.48
2023-01-29T02:45:14.042Z,100467.77
2023-01-29T02:47:49.280Z,100470.57
2023-01-29T02:50:20.984Z,100467.22
2023-01-29T02:53:07.236Z,100467.00
2023-01-29T02:55:38.070Z,100468.95
2023-01-29T02:58:41.879Z,100473.64
2023-01-29T03:01:23.922Z,100469.79
2023-01-29T03:03:56.928Z,100472.27
2023-01-29T03:06:38.045Z,100473.89
2023-01-29T03:09:23.519Z,100475.61
2023-01-29T03:11:53.536Z,100477.09
2023-01-29T03:14:54.279Z,100478.44
2023-01-29T03:17:26.223Z,100478.28
2023-01-29T03:19:55.024Z,100482.69
2023-01-29T03:22:24.021Z,100482.24
2023-01-29T03:25:18.718Z,100479.91
2023-01-29T03:28:13.051Z,100479.48
2023-01-29T03:31:06.719Z,100476.95
2023-01-29T03:33:54.498Z,100483.98
2023-01-29T03:36:38.409Z,100484.73
2023-01-29T03:39:07.906Z,100483.20
2023-01-29T03:41:42.915Z,100480.09
2023-01-29T03:44:18.434Z,100481.48
2023-01-29T03:47:22.956Z,100478.10
2023-01-29T03:50:00.959Z,100475.37
2023-01-29T03:52:46.653Z,100471.81
2023-01-29T03:55:23.322Z,100473.63
2023-01-29T03:57:55.176Z,100475.79
2023-01-29T04:00:34.920Z,100474.52
2023-01-29T04:03:27.058Z,100477.98
2023-01-29T04:06:05.713Z,100476.33
2023-01-29T04:08:56.887Z,100476.05
2023-01-29T04:11:27.223Z,100470.92
2023-01-29T04:13:56.615Z,100474.12
2023-01-29T04:16:29.330Z,100470.86
2023-01-29T04:19:16.518Z,100474.54
2023-01-29T04:21:45.405Z,100474.77
2023-01-29T04:24:15.521Z,100477.13
2023-01-29T04:27:00.185Z,100475.10
2023-01-29T04:29:54.573Z,100472.76
2023-01-29T04:32:58.523Z,100474.27
2023-01-29T04:35:32.213Z,100476.26
2023-01-29T04:38:25.447Z,100473.95
2023-01-29T04:40:54.028Z,100473.15
2023-01-29T04:43:41.461Z,100475.79
2023-01-29T04:46:17.920Z,100476.57
2023-01-29T04:48:46.405Z,100478.89
2023-01-29T04:51:25.634Z,100474.65
2023-01-29T04:54:07.018Z,100477.16
2023-01-29T04:57:02.856Z,100476.64
2023-01-29T04:59:33.712Z,100481.56
2023-01-29T05:02:02.821Z,100478.29
2023-01-29T05:04:32.796Z,100473.89
2023-01-29T05:07:05.263Z,100475.05
2023-01-29T05:09:33.757Z,100475.73
2023-01-29T05:12:02.537Z,100475.61
2023-01-29T05:14:31.335Z,100477.60
2023-01-29T05:17:00.210Z,100476.91
2023-01-29T05:19:29.207Z,100478.20
2023-01-29T05:21:58.088Z,100480.00
2023-01-29T05:24:26.836Z,100485.23
2023-01-29T05:27:17.615Z,100486.83
2023-01-29T05:29:47.199Z,100485.51
2023-01-29T05:32:16.089Z,100485.00
2023-01-29T05:34:44.725Z,100486.16
2023-01-29T05:37:13.352Z,100486.03
2023-01-29T05:39:41.932Z,100489.77
2023-01-29T05:42:10.429Z,100493.00
2023-01-29T05:44:39.199Z,100491.27
2023-01-29T05:47:07.687Z,100495.20
2023-01-29T05:49:38.628Z,100492.42
2023-01-29T05:52:07.510Z,100494.02
2023-01-29T05:54:36.195Z,100495.48
2023-01-29T05:57:04.879Z,100498.49
2023-01-29T05:59:33.778Z,100501.50
2023-01-29T06:02:02.839Z,100501.98
2023-01-29T06:04:31.761Z,100500.95
2023-01-29T06:07:03.826Z,100502.73
2023-01-29T06:09:33.125Z,100506.44
2023-01-29T06:12:03.444Z,100501.95
2023-01-29T06:14:32.452Z,100502.55
2023-01-29T06:17:01.841Z,100504.72
2023-01-29T06:19:30.733Z,100506.64
2023-01-29T06:21:59.524Z,100509.81
2023-01-29T06:24:28.225Z,100512.39
2023-01-29T06:26:56.892Z,100514.18
2023-01-29T06:29:25.572Z,100512.62
2023-01-29T06:31:54.161Z,100511.59
2023-01-29T06:34:25.949Z,100513.27
2023-01-29T06:36:54.605Z,100514.59
2023-01-29T06:39:23.490Z,100513.44
2023-01-29T06:41:52.277Z,100515.02
2023-01-29T06:44:21.585Z,100508.73
2023-01-29T06:46:50.168Z,100505.82
2023-01-29T06:49:18.848Z,100505.06
2023-01-29T06:51:48.866Z,100504.19
2023-01-29T06:54:17.674Z,100503.84
2023-01-29T06:56:46.747Z,100502.71
2023-01-29T06:59:15.537Z,100506.77
2023-01-29T07:01:44.683Z,100504.42
2023-01-29T07:04:13.629Z,100505.41
2023-01-29T07:06:42.453Z,100506.55
2023-01-29T07:09:14.112Z,100511.84
2023-01-29T07:11:42.592Z,100504.39
2023-01-29T07:14:11.240Z,100502.50
2023-01-29T07:16:40.178Z,100502.02
2023-01-29T07:19:10.036Z,100501.91
2023-01-29T07:21:39.442Z,100499.44
2023-01-29T07:24:08.567Z,100496.75
2023-01-29T07:26:37.863Z,100497.59
2023-01-29T07:29:07.784Z,100496.74
2023-01-29T07:31:37.457Z,100497.54
2023-01-29T07:34:06.143Z,100495.23
2023-01-29T07:36:34.785Z,100496.29
2023-01-29T07:39:03.636Z,100502.34
2023-01-29T07:41:32.920Z,100502.05
2023-01-29T07:44:01.603Z,100496.52
2023-01-29T07:46:30.504Z,100502.36
2023-01-29T07:49:01.667Z,100499.31
2023-01-29T07:51:30.633Z,100497.10
2023-01-29T07:53:59.112Z,100496.60
2023-01-29T07:56:28.615Z,100495.80
2023-01-29T07:58:57.048Z,100497.14
2023-01-29T08:01:25.966Z,100494.25
2023-01-29T08:03:54.672Z,100490.23
2023-01-29T08:06:23.304Z,100494.72
2023-01-29T08:08:56.351Z,100494.77
2023-01-29T08:11:28.617Z,100489.34
2023-01-29T08:14:00.271Z,100495.55
2023-01-29T08:16:29.191Z,100496.79
2023-01-29T08:18:58.461Z,100495.01
2023-01-29T08:21:26.940Z,100489.67
2023-01-29T08:23:55.559Z,100495.75
2023-01-29T08:26:26.720Z,100496.85
2023-01-29T08:28:55.249Z,100495.86
2023-01-29T08:31:24.390Z,100497.16
2023-01-29T08:33:56.026Z,100500.56
2023-01-29T08:36:24.933Z,100504.15
2023-01-29T08:38:53.574Z,100502.66
2023-01-29T08:41:23.535Z,100497.22
2023-01-29T08:43:52.203Z,100501.74
2023-01-29T08:46:21.109Z,100500.95
2023-01-29T08:48:49.853Z,100499.08
2023-01-29T08:51:19.267Z,100494.23
2023-01-29T08:53:50.591Z,100495.09
2023-01-29T08:56:19.492Z,100496.23
2023-01-29T08:58:47.992Z,100495.31
2023-01-29T09:01:18.023Z,100494.65
2023-01-29T09:03:47.295Z,100495.05
2023-01-29T09:06:17.101Z,100494.83
2023-01-29T09:08:50.805Z,100494.58
2023-01-29T09:11:20.432Z,100494.45
2023-01-29T09:13:49.310Z,100493.77
2023-01-29T09:16:18.784Z,100495.74
2023-01-29T09:18:47.596Z,100496.13
2023-01-29T09:21:16.383Z,100494.45
2023-01-29T09:23:45.289Z,100489.58
2023-01-29T09:26:13.935Z,100485.65
2023-01-29T09:28:43.378Z,100485.31
2023-01-29T09:31:12.138Z,100488.77
2023-01-29T09:33:40.742Z,100489.98
2023-01-29T09:36:10.010Z,100487.02
2023-01-29T09:38:38.615Z,100488.55
2023-01-29T09:41:35.840Z,100487.28
2023-01-29T09:44:11.009Z,100486.73
2023-01-29T09:46:41.442Z,100484.69
2023-01-29T09:49:33.248Z,100485.13
2023-01-29T09:52:05.536Z,100482.05
2023-01-29T09:54:51.702Z,100480.69
2023-01-29T09:57:27.529Z,100484.14
2023-01-29T09:59:55.981Z,100477.19
2023-01-29T10:02:37.137Z,100472.30
2023-01-29T10:05:13.462Z,100463.97
2023-01-29T10:07:51.203Z,100460.45
2023-01-29T10:10:39.759Z,100456.78
2023-01-29T10:13:21.746Z,100455.18
2023-01-29T10:15:59.386Z,100452.91
2023-01-29T10:19:07.760Z,100448.14
2023-01-29T10:22:05.323Z,100438.80
2023-01-29T10:30:23.911Z,100435.09
2023-01-29T10:46:47.288Z,100420.20
2023-01-29T10:49:38.682Z,100419.36
2023-01-29T10:52:13.100Z,100418.05
2023-01-29T10:55:03.609Z,100418.04
2023-01-29T10:57:32.418Z,100414.61
2023-01-29T11:00:24.232Z,100416.60
2023-01-29T11:02:53.015Z,100415.08
2023-01-29T11:05:32.077Z,100416.16
2023-01-29T11:08:16.066Z,100414.66
2023-01-29T11:10:52.329Z,100417.29
2023-01-29T11:13:22.359Z,100420.48
2023-01-29T11:15:53.090Z,100419.65
2023-01-29T11:18:22.801Z,100418.27
2023-01-29T11:21:02.399Z,100423.89
2023-01-29T11:23:33.915Z,100428.00
2023-01-29T11:26:05.238Z,100424.80
2023-01-29T11:28:37.310Z,100423.48
2023-01-29T11:31:21.345Z,100424.24
2023-01-29T11:34:02.647Z,100425.55
2023-01-29T11:36:39.423Z,100426.63
2023-01-29T11:39:15.467Z,100428.55
2023-01-29T11:41:45.881Z,100431.08
2023-01-29T11:44:21.345Z,100439.39
2023-01-29T11:46:51.661Z,100436.53
2023-01-29T11:49:34.890Z,100440.13
2023-01-29T11:52:05.680Z,100441.86
2023-01-29T11:54:58.381Z,100447.89
2023-01-29T11:57:30.697Z,100450.16
2023-01-29T12:00:25.538Z,100455.61
2023-01-29T12:03:06.115Z,100458.48
2023-01-29T12:05:35.826Z,100461.44
2023-01-29T12:08:10.704Z,100460.40
2023-01-29T12:10:41.671Z,100460.18
2023-01-29T12:13:10.857Z,100460.88
2023-01-29T12:15:41.310Z,100458.70
2023-01-29T12:18:42.556Z,100458.91
2023-01-29T12:21:11.526Z,100458.58
2023-01-29T12:31:29.751Z,100457.90
2023-01-29T12:34:31.955Z,100461.57
2023-01-29T12:37:11.348Z,100452.51
2023-01-29T12:39:42.152Z,100452.33
2023-01-29T12:42:18.222Z,100457.23
2023-01-29T12:44:49.158Z,100459.35
2023-01-29T12:47:37.735Z,100461.70
2023-01-29T12:50:28.229Z,100465.95
2023-01-29T12:53:00.160Z,100466.55
2023-01-29T12:55:33.742Z,100467.06
2023-01-29T12:58:12.168Z,100472.06
2023-01-29T13:00:44.574Z,100472.23
2023-01-29T13:03:27.562Z,100477.09
2023-01-29T13:06:17.484Z,100475.02
2023-01-29T13:09:02.565Z,100477.72
2023-01-29T13:12:19.524Z,100477.42
2023-01-29T13:14:52.249Z,100475.09
2023-01-29T13:17:36.936Z,100479.26
2023-01-29T13:20:18.806Z,100485.06
2023-01-29T13:22:49.129Z,100488.33
2023-01-29T13:25:18.814Z,100489.64
2023-01-29T13:27:48.143Z,100492.31
2023-01-29T13:30:35.927Z,100496.73
2023-01-29T13:33:11.709Z,100494.98
2023-01-29T13:36:02.001Z,100501.35
2023-01-29T13:38:33.432Z,100499.17
2023-01-29T13:41:04.098Z,100500.25
2023-01-29T13:43:41.963Z,100499.59
2023-01-29T13:46:14.504Z,100496.94
2023-01-29T13:48:48.511Z,100499.42
2023-01-29T13:51:21.011Z,100500.83
2023-01-29T14:00:22.455Z,100502.77
2023-01-29T14:03:00.272Z,100505.39
2023-01-29T14:05:41.535Z,100506.88
2023-01-29T14:08:10.326Z,100506.70
2023-01-29T14:10:41.972Z,100508.96
2023-01-29T14:13:19.820Z,100510.59
2023-01-29T14:16:04.844Z,100513.36
2023-01-29T14:19:01.950Z,100515.34
2023-01-29T14:21:36.222Z,100516.52
2023-01-29T14:24:22.979Z,100517.23
2023-01-29T14:26:57.078Z,100525.02
2023-01-29T14:29:35.094Z,100530.05
2023-01-29T14:32:25.208Z,100530.19
2023-01-29T14:35:01.846Z,100529.80
2023-01-29T14:37:35.360Z,100529.38
2023-01-29T14:40:19.970Z,100529.92
2023-01-29T14:43:09.482Z,100535.55
2023-01-29T14:45:40.189Z,100538.20
2023-01-29T14:48:11.826Z,100537.74
2023-01-29T14:50:50.691Z,100541.58
2023-01-29T14:53:23.697Z,100542.16
2023-01-29T14:55:59.719Z,100549.73
2023-01-29T14:58:53.201Z,100550.83
2023-01-29T15:01:35.970Z,100548.10
2023-01-29T15:04:18.357Z,100548.63
2023-01-29T15:06:48.799Z,100552.48
2023-01-29T15:09:55.628Z,100546.54
2023-01-29T15:12:32.274Z,100546.02
2023-01-29T15:15:41.815Z,100542.31
2023-01-29T15:18:14.228Z,100543.75
2023-01-29T15:20:45.423Z,100539.52
2023-01-29T15:23:35.708Z,100532.50
2023-01-29T15:26:09.177Z,100525.09
2023-01-29T15:28:38.612Z,100522.95
2023-01-29T15:31:12.256Z,100527.72
2023-01-29T15:33:43.662Z,100536.95
2023-01-29T15:36:29.681Z,100537.58
2023-01-29T15:39:29.331Z,100541.63
2023-01-29T15:42:31.573Z,100548.30
2023-01-29T15:45:00.731Z,100552.14
2023-01-29T15:47:31.635Z,100554.30
2023-01-29T15:50:00.870Z,100558.59
2023-01-29T15:52:33.264Z,100557.20
2023-01-29T15:55:04.128Z,100554.36
2023-01-29T15:57:41.008Z,100557.85
2023-01-29T16:00:38.252Z,100559.46
2023-01-29T16:03:15.853Z,100563.84
2023-01-29T16:05:44.404Z,100567.72
2023-01-29T16:08:16.194Z,100569.83
2023-01-29T16:10:45.751Z,100571.66
2023-01-29T16:13:27.091Z,100568.20
2023-01-29T16:16:00.800Z,100570.75
2023-01-29T16:18:47.707Z,100572.53
2023-01-29T16:21:23.528Z,100574.21
2023-01-29T16:24:06.420Z,100571.63
2023-01-29T16:26:39.047Z,100566.80
2023-01-29T16:29:09.955Z,100567.27
2023-01-29T16:31:39.581Z,100568.52
2023-01-29T16:34:31.477Z,100569.16
2023-01-29T16:37:01.495Z,100577.19
2023-01-29T16:39:36.446Z,100576.05
2023-01-29T16:42:18.869Z,100577.56
2023-01-29T16:44:50.800Z,100576.91
2023-01-29T16:47:56.260Z,100578.15
2023-01-29T16:50:36.107Z,100591.57
2023-01-29T16:53:18.034Z,100590.92
2023-01-29T16:55:47.281Z,100590.59
2023-01-29T16:58:25.725Z,100595.41
2023-01-29T17:01:04.754Z,100596.48
2023-01-29T17:03:33.756Z,100594.34
2023-01-29T17:06:25.256Z,100592.25
2023-01-29T17:08:54.033Z,100588.84
2023-01-29T17:11:33.771Z,100588.42
2023-01-29T17:14:02.465Z,100589.31
2023-01-29T17:16:33.537Z,100586.04
2023-01-29T17:19:03.805Z,100585.44
2023-01-29T17:21:35.034Z,100582.04
2023-01-29T17:24:03.772Z,100578.60
2023-01-29T17:26:32.626Z,100579.00
2023-01-29T17:29:02.358Z,100580.77
2023-01-29T17:31:31.409Z,100584.61
2023-01-29T17:34:00.588Z,100590.90
2023-01-29T17:36:31.497Z,100592.32
2023-01-29T17:39:02.316Z,100593.32
2023-01-29T17:41:31.725Z,100597.58
2023-01-29T17:44:00.512Z,100595.12
2023-01-29T17:46:30.224Z,100592.55
2023-01-29T17:48:59.215Z,100587.98
2023-01-29T17:51:28.308Z,100582.35
2023-01-29T17:53:57.928Z,100583.05
2023-01-29T17:56:29.198Z,100582.75
2023-01-29T17:58:58.012Z,100582.69
2023-01-29T18:01:26.752Z,100584.29
2023-01-29T18:03:57.390Z,100583.52
2023-01-29T18:06:28.746Z,100583.58
2023-01-29T18:08:57.520Z,100580.92
2023-01-29T18:11:27.417Z,100577.46
2023-01-29T18:13:56.638Z,100578.52
2023-01-29T18:16:27.107Z,100578.04
2023-01-29T18:18:57.702Z,100578.11
2023-01-29T18:21:28.433Z,100580.02
2023-01-29T18:23:57.090Z,100578.03
2023-01-29T18:26:26.841Z,100576.52
2023-01-29T18:28:55.998Z,100572.71
2023-01-29T18:31:25.973Z,100568.71
2023-01-29T18:33:55.452Z,100565.11
2023-01-29T18:36:24.043Z,100559.14
2023-01-29T18:38:53.825Z,100559.37
2023-01-29T18:41:23.424Z,100556.38
2023-01-29T18:43:53.181Z,100555.55
2023-01-29T18:46:23.581Z,100557.64
2023-01-29T18:48:55.312Z,100563.86
2023-01-29T18:51:24.922Z,100563.32
2023-01-29T18:53:54.733Z,100565.11
2023-01-29T18:56:23.836Z,100560.95
2023-01-29T18:58:58.364Z,100564.38
2023-01-29T19:01:27.810Z,100563.86
2023-01-29T19:03:57.123Z,100565.91
2023-01-29T19:06:25.947Z,100573.17
2023-01-29T19:08:55.755Z,100568.50
2023-01-29T19:11:24.954Z,100574.89
2023-01-29T19:13:55.321Z,100584.64
2023-01-29T19:16:26.217Z,100590.33
2023-01-29T19:18:56.439Z,100593.43
2023-01-29T19:21:26.812Z,100597.20
2023-01-29T19:23:58.521Z,100601.77
2023-01-29T19:26:27.384Z,100606.54
2023-01-29T19:28:57.192Z,100607.73
2023-01-29T19:31:28.211Z,100611.06
2023-01-29T19:33:59.633Z,100614.76
2023-01-29T19:36:28.921Z,100612.64
2023-01-29T19:38:58.728Z,100617.99
2023-01-29T19:41:28.124Z,100615.40
2023-01-29T19:43:57.534Z,100610.80
2023-01-29T19:46:26.520Z,100605.47
2023-01-29T19:48:57.360Z,100610.36
2023-01-29T19:51:28.245Z,100611.21
2023-01-29T19:53:58.618Z,100611.52
2023-01-29T19:56:29.664Z,100612.27
2023-01-29T19:58:58.167Z,100608.66
2023-01-29T20:01:30.558Z,100605.30
2023-01-29T20:03:59.877Z,100606.72
2023-01-29T20:06:31.408Z,100605.84
2023-01-29T20:09:03.634Z,100607.80
2023-01-29T20:11:34.998Z,100613.71
2023-01-29T20:14:04.600Z,100614.05
2023-01-29T20:16:34.250Z,100609.80
2023-01-29T20:19:14.030Z,100607.51
2023-01-29T20:21:46.840Z,100604.14
2023-01-29T20:24:16.231Z,100603.02
2023-01-29T20:26:53.150Z,100601.73
2023-01-29T20:29:22.304Z,100601.29
2023-01-29T20:31:52.314Z,100603.63
2023-01-29T20:34:22.241Z,100599.27
2023-01-29T20:36:51.124Z,100606.17
2023-01-29T20:39:22.406Z,100606.02
2023-01-29T20:41:53.943Z,100607.59
2023-01-29T20:44:23.675Z,100604.55
2023-01-29T20:46:52.339Z,100605.80
2023-01-29T20:49:22.455Z,100607.27
2023-01-29T20:51:52.357Z,100614.01
2023-01-29T20:54:23.698Z,100611.91
2023-01-29T20:56:55.292Z,100619.42
2023-01-29T20:59:26.646Z,100624.45
2023-01-29T21:01:56.612Z,100625.54
2023-01-29T21:04:31.798Z,100618.77
2023-01-29T21:07:01.872Z,100617.28
2023-01-29T21:09:30.880Z,100617.84
2023-01-29T21:12:00.094Z,100618.48
2023-01-29T21:14:36.180Z,100621.04
2023-01-29T21:17:05.327Z,100622.98
2023-01-29T21:19:34.005Z,100624.46
2023-01-29T21:22:02.924Z,100630.34
2023-01-29T21:24:32.405Z,100631.48
2023-01-29T21:27:02.519Z,100633.95
2023-01-29T21:29:31.266Z,100634.84
2023-01-29T21:32:00.047Z,100629.71
2023-01-29T21:34:29.086Z,100629.90
2023-01-29T21:36:57.981Z,100624.48
2023-01-29T21:39:26.969Z,100625.34
2023-01-29T21:42:14.258Z,100625.73
2023-01-29T21:44:43.714Z,100626.27
2023-01-29T21:47:15.356Z,100623.38
2023-01-29T21:49:45.493Z,100627.54
2023-01-29T21:52:15.202Z,100624.54
2023-01-29T21:54:49.244Z,100630.58
2023-01-29T21:57:18.079Z,100632.80
2023-01-29T21:59:46.990Z,100632.26
2023-01-29T22:02:23.084Z,100632.30
2023-01-29T22:05:08.748Z,100631.91
2023-01-29T22:07:46.206Z,100633.16
2023-01-29T22:10:15.767Z,100629.70
2023-01-29T22:12:46.278Z,100624.13
2023-01-29T22:15:26.118Z,100627.10
2023-01-29T22:17:55.895Z,100627.70
2023-01-29T22:20:30.303Z,100627.65
2023-01-29T22:23:00.777Z,100627.00
2023-01-29T22:25:30.510Z,100627.30
2023-01-29T22:27:59.140Z,100627.27
2023-01-29T22:30:27.987Z,100627.83
2023-01-29T22:32:57.330Z,100629.36
2023-01-29T22:35:26.114Z,100633.89
2023-01-29T22:37:55.114Z,100630.50
2023-01-29T22:40:23.692Z,100630.02
2023-01-29T22:42:52.324Z,100631.38
2023-01-29T22:45:21.272Z,100635.58
2023-01-29T22:47:52.000Z,100634.31
2023-01-29T22:50:20.893Z,100633.56
2023-01-29T22:52:54.125Z,100632.10
2023-01-29T22:55:24.202Z,100631.11
2023-01-29T22:57:53.813Z,100628.80
2023-01-29T23:00:22.608Z,100626.44
2023-01-29T23:02:51.092Z,100624.34
2023-01-29T23:05:20.068Z,100626.80
2023-01-29T23:07:50.709Z,100625.41
2023-01-29T23:10:19.510Z,100623.21
2023-01-29T23:12:48.382Z,100620.05
2023-01-29T23:15:17.380Z,100617.29
2023-01-29T23:17:46.164Z,100610.33
2023-01-29T23:20:15.414Z,100606.98
2023-01-29T23:22:44.562Z,100607.30
2023-01-29T23:25:13.650Z,100612.61
2023-01-29T23:27:42.339Z,100608.23
2023-01-29T23:30:12.269Z,100607.22
2023-01-29T23:32:40.831Z,100610.84
2023-01-29T23:35:09.928Z,100610.61
2023-01-29T23:37:38.307Z,100613.19
2023-01-29T23:40:07.919Z,100615.25
2023-01-29T23:42:36.604Z,100611.36
2023-01-29T23:45:06.003Z,100615.21
2023-01-29T23:47:34.691Z,100617.98
2023-01-29T23:50:07.901Z,100618.38
2023-01-29T23:52:37.494Z,100623.20
2023-01-29T23:55:07.300Z,100623.30
2023-01-29T23:57:36.189Z,100626.88
